Time;durP1;ratioP1;P1;durP2;ratioP2;P2;SDS_P1;SDS_P2;PMS_P1;PMS_P2;Temp;Humidity;BMP_temperature;BMP_pressure;BME280_temperature;BME280_humidity;BME280_pressure;Samples;Min_cycle;Max_cycle;Signal;HPM_P1;HPM_P2
2022/01/06 00:01:09;;;;;;;18.75;4.05;;;;;;;2.36;100.00;101385.75;10458420;28;20390;-57
2022/01/06 00:06:12;;;;;;;30.23;4.80;;;;;;;2.27;100.00;101397.09;10458403;28;20099;-57
2022/01/06 00:11:15;;;;;;;21.77;3.90;;;;;;;2.42;100.00;101393.41;10459927;28;20051;-56
2022/01/06 00:27:01;;;;;;;23.20;3.53;;;;;;;2.43;100.00;101408.06;10457821;28;20306;-57
2022/01/06 00:32:04;;;;;;;24.50;3.42;;;;;;;2.42;100.00;101419.25;10457389;28;20055;-54
2022/01/06 00:37:07;;;;;;;19.45;5.13;;;;;;;2.31;100.00;101411.66;10457264;28;20055;-54
2022/01/06 00:42:10;;;;;;;21.38;4.63;;;;;;;2.31;100.00;101406.50;10456706;28;20408;-59
2022/01/06 00:47:12;;;;;;;17.08;3.00;;;;;;;2.28;100.00;101405.69;10456041;28;20049;-56
2022/01/06 00:52:14;;;;;;;24.58;3.70;;;;;;;2.16;100.00;101417.03;10462563;28;20379;-56
2022/01/06 00:57:17;;;;;;;14.50;3.25;;;;;;;2.17;100.00;101416.13;10457568;28;20059;-54
2022/01/06 01:02:19;;;;;;;23.27;3.00;;;;;;;2.17;100.00;101417.00;10456599;28;20060;-53
2022/01/06 01:07:22;;;;;;;23.55;3.67;;;;;;;2.16;100.00;101419.63;10456209;28;20075;-56
2022/01/06 01:12:26;;;;;;;19.10;3.25;;;;;;;2.31;100.00;101421.16;10456216;28;20056;-58
2022/01/06 01:17:28;;;;;;;29.00;4.95;;;;;;;2.36;100.00;101424.53;10456257;28;20409;-57
2022/01/06 01:22:31;;;;;;;25.10;3.72;;;;;;;2.25;100.00;101429.81;10456341;28;20044;-57
2022/01/06 01:27:38;;;;;;;21.27;3.00;;;;;;;2.22;100.00;101437.63;10456238;28;20516;-57
2022/01/06 01:32:46;;;;;;;21.75;3.30;;;;;;;2.11;100.00;101440.31;10472388;28;20059;-58
2022/01/06 01:37:49;;;;;;;17.40;3.10;;;;;;;2.17;100.00;101455.78;10464009;28;20056;-55
2022/01/06 01:42:51;;;;;;;13.30;3.50;;;;;;;2.14;100.00;101463.56;10463714;28;20060;-54
2022/01/06 01:47:53;;;;;;;23.15;3.45;;;;;;;2.17;100.00;101472.97;10463419;28;20516;-53
2022/01/06 01:52:57;;;;;;;19.90;3.70;;;;;;;2.18;100.00;101480.72;10463339;28;20424;-56
2022/01/06 01:57:59;;;;;;;19.40;4.97;;;;;;;2.11;100.00;101481.66;10463368;28;20064;-58
2022/01/06 02:03:02;;;;;;;14.95;2.75;;;;;;;2.19;100.00;101497.09;10461885;28;20493;-54
2022/01/06 02:08:05;;;;;;;14.07;2.92;;;;;;;2.03;100.00;101509.31;10461668;28;20103;-55
2022/01/06 02:13:07;;;;;;;26.48;4.32;;;;;;;2.23;100.00;101514.25;10468310;28;20481;-55
2022/01/06 02:18:10;;;;;;;18.48;3.65;;;;;;;2.19;100.00;101512.59;10462498;28;20061;-58
2022/01/06 02:23:12;;;;;;;21.02;3.22;;;;;;;2.33;100.00;101509.84;10462157;28;20538;-57
2022/01/06 02:28:17;;;;;;;29.00;3.80;;;;;;;2.18;100.00;101516.88;10462170;28;20135;-57
2022/01/06 02:33:20;;;;;;;13.05;3.33;;;;;;;2.25;100.00;101519.41;10462239;28;20078;-57
2022/01/06 02:38:23;;;;;;;21.13;4.50;;;;;;;2.17;100.00;101528.09;10461697;28;20401;-53
2022/01/06 02:43:26;;;;;;;13.95;3.25;;;;;;;2.27;100.00;101518.53;10460444;28;20053;-55
2022/01/06 02:48:29;;;;;;;22.77;3.55;;;;;;;2.13;100.00;101513.50;10466710;28;20075;-57
2022/01/06 02:53:31;;;;;;;19.45;3.20;;;;;;;2.17;100.00;101516.91;10463669;28;20049;-56
2022/01/06 02:58:33;;;;;;;16.10;2.60;;;;;;;2.06;100.00;101518.75;10461647;28;20049;-56
2022/01/06 03:03:36;;;;;;;28.90;4.70;;;;;;;2.17;100.00;101519.47;10460454;28;20049;-53
2022/01/06 03:08:38;;;;;;;8.63;2.30;;;;;;;2.11;100.00;101519.56;10460573;28;20053;-56
2022/01/06 03:13:40;;;;;;;15.65;2.88;;;;;;;2.22;100.00;101531.50;10460270;28;20056;-56
2022/01/06 03:18:43;;;;;;;15.93;2.53;;;;;;;2.09;100.00;101539.41;10460059;28;20525;-57
2022/01/06 03:23:45;;;;;;;16.65;2.70;;;;;;;2.09;100.00;101535.09;10460016;28;20467;-57
2022/01/06 03:28:47;;;;;;;19.60;2.58;;;;;;;2.12;100.00;101532.47;10467144;28;20049;-55
2022/01/06 03:33:51;;;;;;;10.90;2.80;;;;;;;2.05;100.00;101546.31;10459894;28;20056;-58
2022/01/06 03:38:53;;;;;;;29.55;3.08;;;;;;;2.11;100.00;101540.22;10458338;28;20056;-57
2022/01/06 03:43:56;;;;;;;14.40;2.90;;;;;;;2.09;100.00;101555.75;10459480;28;20057;-57
2022/01/06 03:48:58;;;;;;;18.30;4.13;;;;;;;1.88;100.00;101554.22;10459534;28;20136;-56
2022/01/06 03:54:00;;;;;;;15.13;2.72;;;;;;;1.73;100.00;101554.34;10457570;28;20053;-54
2022/01/06 03:59:03;;;;;;;28.48;3.78;;;;;;;1.92;100.00;101557.66;10458850;28;20063;-55
2022/01/06 04:04:06;;;;;;;21.20;2.63;;;;;;;1.94;100.00;101561.06;10462457;28;20055;-58
2022/01/06 04:09:08;;;;;;;15.60;3.63;;;;;;;1.75;100.00;101565.50;10462931;28;20049;-53
2022/01/06 04:14:11;;;;;;;26.13;3.55;;;;;;;1.72;100.00;101571.56;10457951;28;20564;-56
2022/01/06 04:19:13;;;;;;;22.33;2.90;;;;;;;1.74;100.00;101581.91;10457840;28;20049;-58
2022/01/06 04:24:16;;;;;;;22.85;4.13;;;;;;;1.69;100.00;101579.34;10457397;28;20056;-58
2022/01/06 04:29:18;;;;;;;19.20;2.80;;;;;;;1.74;100.00;101585.31;10457197;28;20049;-56
2022/01/06 04:34:20;;;;;;;23.73;4.45;;;;;;;1.72;100.00;101596.56;10457247;28;20065;-56
2022/01/06 04:39:23;;;;;;;10.30;2.70;;;;;;;1.81;100.00;101596.47;10457073;28;20481;-57
2022/01/06 04:44:25;;;;;;;23.60;3.95;;;;;;;1.75;100.00;101604.25;10461775;28;20415;-57
2022/01/06 04:49:27;;;;;;;17.10;3.55;;;;;;;1.84;100.00;101597.28;10459546;28;20045;-55
2022/01/06 04:54:30;;;;;;;20.27;4.05;;;;;;;1.73;100.00;101614.63;10456839;28;20045;-57
2022/01/06 04:59:32;;;;;;;15.45;3.00;;;;;;;1.75;100.00;101618.03;10456591;28;20053;-54
2022/01/06 05:04:34;;;;;;;17.52;3.67;;;;;;;1.76;100.00;101608.56;10455792;28;20128;-55
2022/01/06 05:09:37;;;;;;;14.60;2.97;;;;;;;1.88;100.00;101621.34;10456527;28;20124;-56
2022/01/06 05:14:40;;;;;;;21.48;2.97;;;;;;;1.75;100.00;101636.09;10456245;28;20493;-56
2022/01/06 05:19:42;;;;;;;16.67;2.40;;;;;;;1.76;100.00;101635.22;10454835;28;20111;-57
2022/01/06 05:24:45;;;;;;;20.10;3.55;;;;;;;1.83;100.00;101641.19;10463608;28;20045;-55
2022/01/06 05:29:47;;;;;;;17.77;2.70;;;;;;;1.97;100.00;101641.13;10456221;28;20048;-58
2022/01/06 05:34:49;;;;;;;19.73;2.75;;;;;;;1.88;100.00;101647.19;10456300;28;20057;-54
2022/01/06 05:39:52;;;;;;;21.75;3.70;;;;;;;2.13;100.00;101652.16;10455804;28;20057;-56
2022/01/06 05:44:54;;;;;;;8.85;2.67;;;;;;;1.82;100.00;101661.00;10455559;28;20052;-52
2022/01/06 05:49:56;;;;;;;15.13;3.05;;;;;;;1.94;100.00;101664.38;10455182;28;20045;-57
2022/01/06 05:54:59;;;;;;;30.25;3.10;;;;;;;1.81;100.00;101655.84;10455526;28;20057;-57
2022/01/06 06:00:01;;;;;;;17.45;3.42;;;;;;;1.79;100.00;101665.34;10457115;28;20053;-56
2022/01/06 06:05:04;;;;;;;16.65;3.92;;;;;;;1.75;100.00;101673.97;10458620;28;20048;-55
2022/01/06 06:10:07;;;;;;;17.33;2.85;;;;;;;1.74;100.00;101672.25;10455512;28;20045;-56
2022/01/06 06:15:09;;;;;;;13.85;2.72;;;;;;;1.46;100.00;101680.16;10456334;28;20513;-56
2022/01/06 06:20:13;;;;;;;13.40;3.45;;;;;;;1.58;100.00;101693.00;10462552;28;20052;-56
2022/01/06 06:25:16;;;;;;;18.63;3.63;;;;;;;1.65;100.00;101699.84;10462398;28;20049;-56
2022/01/06 06:30:18;;;;;;;19.70;2.88;;;;;;;1.59;100.00;101702.44;10462060;28;20045;-54
2022/01/06 06:35:26;;;;;;;17.63;3.22;;;;;;;1.41;100.00;101713.75;10461820;28;20132;-52
2022/01/06 06:40:29;;;;;;;14.88;2.80;;;;;;;1.51;100.00;101717.13;10471340;28;20048;-58
2022/01/06 06:45:31;;;;;;;17.30;4.32;;;;;;;1.57;100.00;101721.41;10461387;28;20057;-58
2022/01/06 06:50:33;;;;;;;19.65;4.03;;;;;;;1.49;100.00;101727.44;10461254;28;20052;-57
2022/01/06 06:55:36;;;;;;;17.80;3.63;;;;;;;1.45;100.00;101737.81;10461270;28;20049;-54
2022/01/06 07:00:39;;;;;;;21.98;2.85;;;;;;;1.46;100.00;101730.06;10461095;28;20064;-58
2022/01/06 07:05:41;;;;;;;18.08;2.97;;;;;;;1.53;100.00;101741.22;10460827;28;20059;-55
2022/01/06 07:10:43;;;;;;;13.55;2.80;;;;;;;1.60;100.00;101752.38;10460340;28;20405;-51
2022/01/06 07:15:47;;;;;;;9.30;2.35;;;;;;;1.57;100.00;101762.72;10459169;28;20053;-56
2022/01/06 07:20:49;;;;;;;28.42;3.05;;;;;;;1.59;100.00;101755.81;10459943;28;20068;-55
2022/01/06 07:25:52;;;;;;;23.67;3.03;;;;;;;1.65;100.00;101769.56;10459405;28;20049;-55
2022/01/06 07:30:54;;;;;;;16.45;2.45;;;;;;;1.76;100.00;101778.97;10459624;28;20048;-57
2022/01/06 07:35:56;;;;;;;14.18;3.35;;;;;;;1.59;100.00;101787.63;10459435;28;20443;-54
2022/01/06 07:40:59;;;;;;;14.45;2.38;;;;;;;1.61;100.00;101797.97;10459388;28;20060;-56
2022/01/06 07:46:01;;;;;;;15.20;2.75;;;;;;;1.53;100.00;101790.25;10459718;28;20064;-56
2022/01/06 07:51:04;;;;;;;15.90;3.10;;;;;;;1.38;100.00;101798.91;10458153;28;20057;-57
2022/01/06 07:56:06;;;;;;;17.08;3.78;;;;;;;1.23;100.00;101806.72;10458489;28;20049;-58
2022/01/06 08:01:10;;;;;;;19.30;4.00;;;;;;;1.18;100.00;101801.56;10457494;28;20060;-57
2022/01/06 08:06:13;;;;;;;21.42;3.92;;;;;;;0.86;100.00;101820.50;10458385;28;20224;-55
2022/01/06 08:11:15;;;;;;;15.77;3.00;;;;;;;1.42;100.00;101815.25;10458617;28;20049;-57
2022/01/06 08:16:24;;;;;;;18.13;3.50;;;;;;;1.33;100.00;101815.25;10457871;28;20047;-56
2022/01/06 08:21:26;;;;;;;13.82;3.80;;;;;;;1.17;100.00;101815.28;10456545;28;20049;-59
2022/01/06 08:26:30;;;;;;;19.80;3.97;;;;;;;1.24;100.00;101818.72;10457504;28;20049;-55
2022/01/06 08:31:32;;;;;;;12.50;2.33;;;;;;;1.60;100.00;101812.59;10457094;28;20044;-55
2022/01/06 08:36:35;;;;;;;12.38;2.90;;;;;;;1.64;100.00;101809.13;10460006;28;20053;-54
2022/01/06 08:41:39;;;;;;;10.30;3.20;;;;;;;1.65;100.00;101822.91;10456328;28;20053;-58
2022/01/06 08:46:41;;;;;;;11.80;3.58;;;;;;;1.64;100.00;101831.50;10457692;28;20059;-56
2022/01/06 08:51:44;;;;;;;22.58;3.13;;;;;;;1.80;100.00;101827.13;10456796;28;20053;-57
2022/01/06 08:56:46;;;;;;;18.13;3.85;;;;;;;1.66;100.00;101838.41;10457249;28;20045;-51
2022/01/06 09:01:49;;;;;;;18.25;3.28;;;;;;;2.06;100.00;101839.94;10455627;28;20049;-57
2022/01/06 09:06:52;;;;;;;13.88;2.78;;;;;;;2.00;100.00;101846.00;10455973;28;20091;-54
2022/01/06 09:11:54;;;;;;;19.42;2.90;;;;;;;2.14;100.00;101852.81;10455105;28;20049;-52
2022/01/06 09:16:57;;;;;;;14.00;2.83;;;;;;;2.12;100.00;101854.53;10456190;28;20448;-56
2022/01/06 09:22:00;;;;;;;13.15;2.53;;;;;;;2.58;100.00;101854.25;10456212;28;20055;-54
2022/01/06 09:27:02;;;;;;;15.32;3.20;;;;;;;2.77;100.00;101857.56;10456134;28;20382;-56
2022/01/06 09:32:05;;;;;;;17.98;3.00;;;;;;;3.57;100.00;101858.53;10455841;28;20057;-57
2022/01/06 09:37:07;;;;;;;12.75;3.40;;;;;;;7.87;85.84;101852.53;10455836;28;20481;-56
2022/01/06 09:42:10;;;;;;;16.13;3.10;;;;;;;7.17;78.02;101862.25;10456003;28;20049;-56
2022/01/06 09:47:12;;;;;;;10.50;2.80;;;;;;;7.95;81.00;101859.25;10456118;28;20056;-57
2022/01/06 09:52:36;;;;;;;14.40;3.72;;;;;;;4.98;86.23;101874.72;10461175;28;20433;-56
2022/01/06 09:57:38;;;;;;;11.68;3.20;;;;;;;5.15;90.19;101881.34;10463525;28;20053;-55
2022/01/06 10:02:40;;;;;;;12.30;3.30;;;;;;;5.05;89.96;101887.59;10462977;28;20559;-55
2022/01/06 10:07:43;;;;;;;12.45;2.83;;;;;;;3.89;92.21;101881.47;10463002;28;20049;-54
2022/01/06 10:12:55;;;;;;;13.80;3.28;;;;;;;3.67;95.66;101884.31;10462646;28;20045;-53
2022/01/06 10:17:58;;;;;;;14.13;3.85;;;;;;;4.29;96.31;101880.97;10462477;28;20481;-57
2022/01/06 10:23:00;;;;;;;17.63;2.50;;;;;;;3.87;96.93;101868.53;10461345;28;20045;-55
2022/01/06 10:28:17;;;;;;;15.95;3.03;;;;;;;3.62;99.68;101867.13;10462184;28;20111;-52
2022/01/06 10:33:21;;;;;;;17.48;3.03;;;;;;;3.44;99.05;101866.41;10462053;28;20041;-58
2022/01/06 10:38:27;;;;;;;19.15;3.47;;;;;;;3.61;98.35;101866.22;10461897;28;20068;-56
2022/01/06 10:43:33;;;;;;;11.23;4.13;;;;;;;4.28;97.57;101872.31;10461353;28;20057;-58
2022/01/06 10:48:36;;;;;;;16.35;3.72;;;;;;;4.04;95.27;101859.69;10460286;28;20386;-57
2022/01/06 10:53:49;;;;;;;15.80;5.00;;;;;;;4.16;96.81;101856.09;10461519;28;20401;-56
2022/01/06 10:58:57;;;;;;;29.90;7.10;;;;;;;4.00;96.35;101860.59;10461106;28;20084;-54
2022/01/06 11:03:59;;;;;;;17.00;4.20;;;;;;;4.08;96.47;101856.16;10460563;28;20041;-55
2022/01/06 11:09:01;;;;;;;13.10;4.68;;;;;;;4.68;93.79;101860.50;10460692;28;20053;-58
2022/01/06 11:14:04;;;;;;;23.00;4.65;;;;;;;5.11;93.03;101867.56;10460197;28;20490;-57
2022/01/06 11:19:06;;;;;;;18.02;4.18;;;;;;;5.69;89.29;101847.44;10460333;28;20049;-58
2022/01/06 11:24:15;;;;;;;25.63;4.72;;;;;;;4.68;89.94;101865.69;10458713;28;20053;-58
2022/01/06 11:29:29;;;;;;;18.15;3.88;;;;;;;4.56;94.90;101860.69;10459841;28;20049;-57
2022/01/06 11:34:38;;;;;;;11.23;3.08;;;;;;;4.37;95.99;101857.50;10458970;28;20045;-56
2022/01/06 11:39:41;;;;;;;11.88;3.30;;;;;;;4.37;97.23;101852.31;10459792;28;20110;-58
2022/01/06 11:44:52;;;;;;;15.50;4.10;;;;;;;4.41;96.39;101865.22;10458790;28;20485;-58
2022/01/06 11:50:16;;;;;;;12.00;3.00;;;;;;;4.70;94.08;101850.94;10459218;28;20055;-57
2022/01/06 11:55:19;;;;;;;14.70;3.88;;;;;;;5.89;93.65;101857.41;10458889;28;20045;-59
2022/01/06 12:00:26;;;;;;;14.38;4.05;;;;;;;6.97;89.26;101857.56;10458684;28;20053;-57
2022/01/06 12:05:43;;;;;;;14.25;3.70;;;;;;;5.14;89.73;101858.84;10457113;28;20505;-58
2022/01/06 12:10:48;;;;;;;17.55;4.68;;;;;;;5.11;91.98;101857.19;10458461;28;20048;-58
2022/01/06 12:15:55;;;;;;;19.73;6.20;;;;;;;5.10;91.99;101854.63;10457610;28;20408;-56
2022/01/06 12:20:58;;;;;;;17.80;4.60;;;;;;;4.95;94.19;101855.75;10458217;28;20044;-58
2022/01/06 12:26:08;;;;;;;18.45;4.78;;;;;;;5.15;94.78;101847.59;10457582;28;20133;-58
2022/01/06 12:31:12;;;;;;;16.45;4.72;;;;;;;4.96;95.77;101845.34;10458075;28;20045;-57
2022/01/06 12:36:19;;;;;;;14.82;3.85;;;;;;;5.09;93.56;101845.09;10456595;28;20057;-59
2022/01/06 12:41:29;;;;;;;12.57;3.55;;;;;;;5.00;94.60;101836.59;10457287;28;20056;-59
2022/01/06 12:46:37;;;;;;;10.13;3.50;;;;;;;4.64;95.82;101828.56;10457060;28;20489;-56
2022/01/06 12:51:44;;;;;;;17.33;3.55;;;;;;;4.97;94.45;101833.19;10456686;28;20135;-58
2022/01/06 12:56:56;;;;;;;9.57;3.10;;;;;;;4.84;93.45;101822.16;10456775;28;20080;-55
2022/01/06 13:01:59;;;;;;;14.07;3.63;;;;;;;4.84;94.37;101817.84;10456553;28;20063;-54
2022/01/06 13:07:04;;;;;;;14.32;3.85;;;;;;;4.71;94.41;101810.28;10456999;28;20053;-55
2022/01/06 13:12:29;;;;;;;12.82;2.92;;;;;;;4.82;94.93;101809.25;10457223;28;20045;-58
2022/01/06 13:17:32;;;;;;;14.15;2.80;;;;;;;4.86;92.93;101798.78;10456466;28;20076;-58
2022/01/06 13:27:57;;;;;;;18.35;2.85;;;;;;;4.84;92.95;101802.28;10463551;28;20064;-56
2022/01/06 13:33:00;;;;;;;15.07;3.28;;;;;;;4.78;93.11;101794.59;10464158;28;20064;-53
2022/01/06 13:38:10;;;;;;;20.45;3.92;;;;;;;4.74;94.94;101792.06;10464956;28;20057;-58
2022/01/06 13:43:18;;;;;;;12.43;3.08;;;;;;;4.96;93.09;101800.34;10463164;28;20060;-55
2022/01/06 13:53:30;;;;;;;12.18;2.45;;;;;;;4.81;94.70;101791.09;10463014;28;20041;-57
2022/01/06 13:58:40;;;;;;;12.80;2.60;;;;;;;4.57;94.86;101782.84;10463492;28;20060;-56
2022/01/06 14:03:42;;;;;;;24.35;3.60;;;;;;;4.37;97.11;101790.97;10463173;28;20051;-57
2022/01/06 14:08:45;;;;;;;16.92;3.45;;;;;;;4.63;94.46;101792.25;10462910;28;20477;-57
2022/01/06 14:13:48;;;;;;;12.02;2.83;;;;;;;4.67;94.59;101793.91;10462986;28;20049;-54
2022/01/06 14:18:51;;;;;;;11.13;2.83;;;;;;;4.64;94.71;101796.59;10462594;28;20049;-55
2022/01/06 14:23:53;;;;;;;12.98;3.28;;;;;;;4.53;94.11;101799.34;10462878;28;20045;-56
2022/01/06 14:28:57;;;;;;;15.48;3.08;;;;;;;4.46;93.43;101803.75;10462324;28;20067;-57
2022/01/06 14:33:59;;;;;;;11.15;3.00;;;;;;;4.40;95.86;101798.66;10461918;28;20053;-58
2022/01/06 14:39:02;;;;;;;7.35;2.72;;;;;;;4.44;96.88;101802.94;10461033;28;20057;-58
2022/01/06 14:44:04;;;;;;;11.57;2.47;;;;;;;3.86;97.92;101796.00;10461625;28;20053;-56
2022/01/06 14:49:07;;;;;;;12.35;2.80;;;;;;;3.44;100.00;101791.34;10460355;28;20088;-58
2022/01/06 14:54:09;;;;;;;11.25;2.65;;;;;;;3.35;100.00;101783.69;10461211;28;20047;-55
2022/01/06 14:59:11;;;;;;;10.35;3.03;;;;;;;3.10;100.00;101783.94;10461459;28;20230;-56
2022/01/06 15:04:14;;;;;;;14.73;3.60;;;;;;;2.75;100.00;101779.13;10461389;28;20045;-58
2022/01/06 15:09:17;;;;;;;8.90;2.92;;;;;;;2.72;100.00;101779.16;10460679;28;20048;-54
2022/01/06 15:14:19;;;;;;;13.07;3.40;;;;;;;2.35;100.00;101774.28;10460529;28;20045;-56
2022/01/06 15:19:23;;;;;;;9.10;2.60;;;;;;;2.38;100.00;101777.69;10459124;28;20421;-53
2022/01/06 15:24:25;;;;;;;10.55;3.25;;;;;;;2.67;100.00;101792.13;10459998;28;20056;-50
2022/01/06 15:29:28;;;;;;;16.08;3.75;;;;;;;2.34;100.00;101776.03;10459969;28;20049;-55
2022/01/06 15:34:30;;;;;;;7.78;3.35;;;;;;;2.60;100.00;101780.97;10459036;28;20056;-55
2022/01/06 15:39:32;;;;;;;14.18;4.00;;;;;;;2.61;100.00;101779.25;10459366;28;20497;-57
2022/01/06 15:44:35;;;;;;;16.50;5.10;;;;;;;2.47;100.00;101779.38;10459539;28;20131;-53
2022/01/06 15:49:37;;;;;;;10.77;4.95;;;;;;;1.86;100.00;101776.31;10458454;28;20512;-57
2022/01/06 15:54:40;;;;;;;12.55;4.43;;;;;;;2.35;100.00;101776.88;10459037;28;20045;-52
2022/01/06 15:59:50;;;;;;;13.23;5.63;;;;;;;1.82;100.00;101778.94;10459059;28;20136;-53
2022/01/06 16:05:11;;;;;;;15.98;6.38;;;;;;;1.59;100.00;101784.22;10457658;28;20049;-58
2022/01/06 16:10:14;;;;;;;15.88;7.65;;;;;;;1.70;100.00;101781.56;10458384;28;20041;-52
2022/01/06 16:15:17;;;;;;;17.20;7.70;;;;;;;1.56;100.00;101779.06;10458084;28;20059;-57
2022/01/06 16:20:19;;;;;;;22.17;8.60;;;;;;;1.51;100.00;101784.22;10457926;28;20052;-55
2022/01/06 16:25:23;;;;;;;26.88;8.70;;;;;;;1.64;100.00;101791.06;10459947;28;20049;-56
2022/01/06 16:30:35;;;;;;;22.85;12.02;;;;;;;1.40;100.00;101799.75;10457245;28;20052;-57
2022/01/06 16:35:37;;;;;;;22.92;10.32;;;;;;;1.54;100.00;101793.69;10457198;28;20404;-57
2022/01/06 16:40:40;;;;;;;23.98;10.75;;;;;;;1.32;100.00;101803.25;10457319;28;20056;-55
2022/01/06 16:45:42;;;;;;;30.80;12.35;;;;;;;1.39;100.00;101803.19;10439628;28;20073;-54
2022/01/06 16:50:47;;;;;;;37.75;17.30;;;;;;;1.07;100.00;101805.88;10457387;28;20049;-55
2022/01/06 16:55:49;;;;;;;32.95;17.45;;;;;;;1.33;100.00;101804.94;10456578;28;20408;-55
2022/01/06 17:00:51;;;;;;;27.27;17.02;;;;;;;1.06;100.00;101802.44;10456060;28;20056;-57
2022/01/06 17:05:54;;;;;;;30.35;14.60;;;;;;;1.04;100.00;101800.69;10455980;28;20133;-56
2022/01/06 17:10:56;;;;;;;28.33;13.65;;;;;;;0.99;100.00;101805.88;10456025;28;20053;-55
2022/01/06 17:15:59;;;;;;;29.90;13.00;;;;;;;1.11;100.00;101811.03;10456217;28;20560;-56
2022/01/06 17:21:01;;;;;;;22.52;12.30;;;;;;;0.96;100.00;101813.63;10456171;28;20409;-56
2022/01/06 17:26:15;;;;;;;18.88;11.27;;;;;;;1.13;100.00;101804.97;10456443;28;20091;-57
2022/01/06 17:31:18;;;;;;;27.88;12.00;;;;;;;1.01;100.00;101809.31;10454957;28;20045;-54
2022/01/06 17:36:22;;;;;;;37.15;15.57;;;;;;;0.61;100.00;101801.63;10455881;28;20099;-58
2022/01/06 17:41:24;;;;;;;38.58;11.73;;;;;;;1.15;100.00;101792.97;10456021;28;20136;-53
2022/01/06 17:46:37;;;;;;;24.25;10.13;;;;;;;0.91;100.00;101799.88;10454580;28;20478;-58
2022/01/06 17:51:40;;;;;;;21.52;8.95;;;;;;;1.00;100.00;101796.44;10455596;28;20481;-56
2022/01/06 17:56:42;;;;;;;32.92;10.63;;;;;;;0.98;100.00;101796.44;10455466;28;20404;-57
2022/01/06 18:01:45;;;;;;;32.90;10.25;;;;;;;1.04;100.00;101796.44;10455438;28;20492;-54
2022/01/06 18:06:52;;;;;;;29.95;8.32;;;;;;;1.57;100.00;101773.03;10455536;28;20045;-54
2022/01/06 18:11:55;;;;;;;23.98;9.90;;;;;;;1.58;100.00;101783.34;10459115;28;20055;-56
2022/01/06 18:16:57;;;;;;;24.38;6.65;;;;;;;1.74;100.00;101775.53;10462758;28;20051;-56
2022/01/06 18:21:59;;;;;;;25.33;8.05;;;;;;;1.73;100.00;101774.69;10462506;28;20059;-55
2022/01/06 18:27:02;;;;;;;16.73;6.10;;;;;;;2.07;100.00;101769.31;10462468;28;20049;-55
2022/01/06 18:32:09;;;;;;;19.98;6.13;;;;;;;2.08;100.00;101767.59;10462686;28;20132;-55
2022/01/06 18:37:11;;;;;;;20.80;6.78;;;;;;;2.15;100.00;101761.50;10462053;28;20060;-54
2022/01/06 18:42:13;;;;;;;35.42;8.65;;;;;;;2.08;100.00;101758.09;10460687;28;20071;-55
2022/01/06 18:47:16;;;;;;;28.55;8.68;;;;;;;2.14;100.00;101745.16;10461705;28;20500;-55
2022/01/06 18:52:19;;;;;;;24.65;8.13;;;;;;;2.13;100.00;101738.25;10461372;28;20056;-54
2022/01/06 18:57:23;;;;;;;32.63;10.00;;;;;;;2.25;100.00;101742.47;10461620;28;20049;-57
2022/01/06 19:02:26;;;;;;;24.60;10.13;;;;;;;2.26;100.00;101727.84;10460977;28;20060;-51
2022/01/06 19:07:28;;;;;;;33.22;10.02;;;;;;;2.14;100.00;101719.31;10460374;28;20076;-54
2022/01/06 19:12:31;;;;;;;31.00;11.63;;;;;;;2.17;100.00;101708.97;10460723;28;20060;-56
2022/01/06 19:17:33;;;;;;;31.75;12.13;;;;;;;2.26;100.00;101702.84;10459149;28;20052;-58
2022/01/06 19:22:35;;;;;;;32.25;12.75;;;;;;;2.14;100.00;101705.56;10459519;28;20060;-57
2022/01/06 19:27:39;;;;;;;26.92;12.57;;;;;;;2.22;100.00;101689.13;10460153;28;20049;-55
2022/01/06 19:32:43;;;;;;;35.50;12.88;;;;;;;2.25;100.00;101689.94;10459051;28;20053;-55
2022/01/06 19:37:46;;;;;;;32.85;11.85;;;;;;;2.26;100.00;101682.19;10459803;28;20045;-56
2022/01/06 19:42:50;;;;;;;29.80;9.65;;;;;;;2.37;100.00;101674.31;10459284;28;20056;-59
2022/01/06 19:47:53;;;;;;;32.05;11.05;;;;;;;2.30;100.00;101670.94;10459330;28;20056;-57
2022/01/06 19:52:55;;;;;;;22.92;10.57;;;;;;;2.26;100.00;101661.50;10458923;28;20045;-58
2022/01/06 19:57:58;;;;;;;26.55;10.38;;;;;;;2.44;100.00;101650.16;10458497;28;20392;-54
2022/01/06 20:03:00;;;;;;;25.77;10.43;;;;;;;2.29;100.00;101646.00;10458673;28;20057;-56
2022/01/06 20:08:03;;;;;;;29.83;9.93;;;;;;;2.26;100.00;101651.19;10458338;28;20564;-53
2022/01/06 20:13:07;;;;;;;21.73;9.02;;;;;;;2.25;100.00;101638.28;10458188;28;20049;-55
2022/01/06 20:18:09;;;;;;;31.50;9.07;;;;;;;2.41;100.00;101629.50;10458758;28;20529;-56
2022/01/06 20:23:13;;;;;;;26.02;9.95;;;;;;;2.22;100.00;101632.28;10458883;28;20060;-57
2022/01/06 20:28:18;;;;;;;25.23;7.75;;;;;;;2.12;100.00;101625.47;10457716;28;20516;-57
2022/01/06 20:33:21;;;;;;;22.35;8.80;;;;;;;2.03;100.00;101621.25;10457190;28;20087;-55
2022/01/06 20:38:23;;;;;;;26.50;9.70;;;;;;;2.16;100.00;101624.56;10457529;28;20053;-57
2022/01/06 20:43:26;;;;;;;25.23;7.75;;;;;;;2.06;100.00;101620.34;10457537;28;20061;-56
2022/01/06 20:53:52;;;;;;;22.77;8.50;;;;;;;2.18;100.00;101607.31;10457298;28;20045;-58
2022/01/06 20:58:56;;;;;;;20.42;7.15;;;;;;;2.35;100.00;101595.97;10456646;28;20056;-53
2022/01/06 21:03:58;;;;;;;14.23;6.95;;;;;;;2.17;100.00;101597.88;10455423;28;20049;-55
2022/01/06 21:09:00;;;;;;;17.42;8.18;;;;;;;1.97;100.00;101592.03;10456633;28;20041;-56
2022/01/06 21:14:03;;;;;;;24.13;7.60;;;;;;;2.04;100.00;101583.34;10456478;28;20575;-56
2022/01/06 21:19:05;;;;;;;18.88;8.30;;;;;;;2.00;100.00;101579.06;10456313;28;20056;-57
2022/01/06 21:24:09;;;;;;;20.02;6.85;;;;;;;2.11;100.00;101578.97;10456268;28;20045;-54
2022/01/06 21:29:13;;;;;;;17.50;7.32;;;;;;;1.99;100.00;101583.38;10456380;28;20048;-58
2022/01/06 21:34:17;;;;;;;18.98;7.43;;;;;;;2.11;100.00;101578.97;10456098;28;20052;-58
2022/01/06 21:39:19;;;;;;;15.25;7.20;;;;;;;1.97;100.00;101563.63;10456248;28;20059;-54
2022/01/06 21:44:21;;;;;;;16.35;7.43;;;;;;;2.06;100.00;101549.75;10455856;28;20053;-53
2022/01/06 21:49:24;;;;;;;19.10;7.03;;;;;;;2.00;100.00;101543.78;10463934;28;20049;-55
2022/01/06 21:54:26;;;;;;;28.63;8.48;;;;;;;2.01;100.00;101542.03;10464090;28;20049;-53
2022/01/06 21:59:28;;;;;;;20.77;6.93;;;;;;;2.04;100.00;101535.13;10463574;28;20059;-56
2022/01/06 22:04:31;;;;;;;19.00;7.50;;;;;;;2.00;100.00;101530.88;10463460;28;20045;-55
2022/01/06 22:09:33;;;;;;;22.15;7.22;;;;;;;2.03;100.00;101528.25;10463192;28;20064;-53
2022/01/06 22:14:36;;;;;;;25.27;7.45;;;;;;;1.95;100.00;101522.31;10463046;28;20378;-58
2022/01/06 22:19:39;;;;;;;18.63;7.38;;;;;;;2.09;100.00;101519.59;10462692;28;20378;-57
2022/01/06 22:24:42;;;;;;;31.35;8.32;;;;;;;2.01;100.00;101513.63;10462594;28;20110;-55
2022/01/06 22:29:45;;;;;;;20.98;5.88;;;;;;;2.02;100.00;101498.13;10462339;28;20045;-54
2022/01/06 22:34:48;;;;;;;21.50;8.52;;;;;;;1.95;100.00;101499.06;10462099;28;20393;-54
2022/01/06 22:39:51;;;;;;;21.80;6.72;;;;;;;2.03;100.00;101486.06;10461795;28;20519;-55
2022/01/06 22:44:54;;;;;;;18.63;7.47;;;;;;;1.96;100.00;101474.09;10461476;28;20071;-57
2022/01/06 22:49:57;;;;;;;18.52;7.65;;;;;;;1.88;100.00;101469.00;10461280;28;20056;-58
2022/01/06 22:54:59;;;;;;;21.60;8.10;;;;;;;1.89;100.00;101462.13;10461414;28;20053;-56
2022/01/06 23:00:05;;;;;;;17.95;8.43;;;;;;;1.91;100.00;101458.63;10460046;28;20497;-53
2022/01/06 23:05:07;;;;;;;19.42;7.50;;;;;;;1.92;100.00;101447.44;10461267;28;20048;-53
2022/01/06 23:10:10;;;;;;;22.27;7.28;;;;;;;1.91;100.00;101444.88;10460870;28;20049;-56
2022/01/06 23:15:13;;;;;;;23.80;8.35;;;;;;;1.95;100.00;101424.16;10459869;28;20072;-56
2022/01/06 23:20:16;;;;;;;18.92;7.18;;;;;;;2.00;100.00;101419.81;10460311;28;20049;-55
2022/01/06 23:25:19;;;;;;;18.77;8.27;;;;;;;1.99;100.00;101417.25;10460116;28;20060;-54